Bookmark and Share
Track history (hours):
 

Zim Panama

Last reported at 2014-Apr-23 06:12 UTC. Time now 2014-Apr-23 07:17 UTC.
Position N 40°41' W 074°09'.

Length 294.12 m; beam 32.2 m; draft 9.45 m.

Type: Ship (hazmat cat C). MMSI: 235474000.

NotesDate/timePositionNaut miles runAvg speedWind from/ knotsBaromVisibWave heightAir tempDewpointWater temp
2014-Apr-23 06:12N 40°41' W 074°09'0 0.0
2014-Apr-23 05:30N 40°41' W 074°09'0 0.0
2014-Apr-23 04:33N 40°41' W 074°09'0 0.0
2014-Apr-23 03:33N 40°41' W 074°09'0 0.0
2014-Apr-23 02:33N 40°41' W 074°09'0 0.0
2014-Apr-23 01:30N 40°41' W 074°09'0 0.0
2014-Apr-23 00:09N 40°41' W 074°09'0 0.0
2014-Apr-22 22:33N 40°41' W 074°09'0 0.0
2014-Apr-22 21:30N 40°41' W 074°09'0 0.0
2014-Apr-22 20:33N 40°41' W 074°09'0 0.0
2014-Apr-22 19:33N 40°41' W 074°09'0 0.0
2014-Apr-22 18:33N 40°41' W 074°09'0 0.0
2014-Apr-22 17:30N 40°41' W 074°09'0 0.0
2014-Apr-22 16:09N 40°41' W 074°09'0 0.0
2014-Apr-22 15:33N 40°41' W 074°09'0 0.0
2014-Apr-22 14:27N 40°41' W 074°09'0 0.0
2014-Apr-22 13:33N 40°41' W 074°09'0 0.0
2014-Apr-22 12:33N 40°41' W 074°09'0 0.0
2014-Apr-22 11:18N 40°41' W 074°09'0 0.0
2014-Apr-22 10:27N 40°41' W 074°09'1 1.4
2014-Apr-22 09:33N 40°40' W 074°09'4 4.2
2014-Apr-22 08:34N 40°38' W 074°03'1110.7
2014-Apr-22 07:33N 40°29' W 073°55'8 8.1
2014-Apr-22 06:33N 40°28' W 073°45'6 6.0
2014-Apr-22 05:32N 40°30' W 073°37'0 0.0
2014-Apr-22 04:32N 40°30' W 073°37'0 0.0
2014-Apr-22 03:32N 40°30' W 073°37'0 0.0
2014-Apr-22 02:29N 40°30' W 073°37'0 0.0
2014-Apr-22 01:32N 40°30' W 073°37'0 0.0
2014-Apr-22 00:32N 40°30' W 073°37'0 0.0
2014-Apr-21 23:26N 40°30' W 073°37'0 0.0
2014-Apr-21 22:29N 40°30' W 073°37'0 0.0
2014-Apr-21 21:32N 40°30' W 073°37'0 0.0
2014-Apr-21 20:29N 40°30' W 073°37'0 0.0
2014-Apr-21 19:32N 40°30' W 073°37'0 0.0
2014-Apr-21 18:32N 40°30' W 073°37'0 0.0
2014-Apr-21 17:24N 40°30' W 073°37'0 0.0
2014-Apr-21 16:26N 40°30' W 073°37'0 0.0
2014-Apr-21 15:29N 40°30' W 073°37'0 0.0
2014-Apr-21 14:26N 40°30' W 073°37'0 0.0
2014-Apr-21 13:32N 40°30' W 073°37'0 0.0
2014-Apr-21 12:32N 40°30' W 073°37'0 0.0
2014-Apr-21 11:32N 40°30' W 073°37'0 0.0
2014-Apr-21 10:32N 40°30' W 073°37'0 0.0
2014-Apr-21 09:29N 40°30' W 073°37'0 0.0
2014-Apr-21 08:32N 40°30' W 073°37'0 0.1
2014-Apr-21 07:33N 40°30' W 073°37'7 6.9
2014-Apr-21 06:33N 40°24' W 073°43'9 9.2
2014-Apr-21 05:33N 40°15' W 073°46'1010.3
2014-Apr-21 04:33N 40°05' W 073°44'1414.2
2014-Apr-21 03:33N 39°51' W 073°43'1515.3
2014-Apr-21 02:33N 39°36' W 073°45'1514.9
2014-Apr-21 01:33N 39°21' W 073°50'189 6.7
2014-Apr-19 21:25N 36°54' W 076°20'29 7.0
2014-Apr-19 17:20N 36°49' W 075°45'  

Dump ship's entire track history

sailing weather and tide predictions

Zim Panama — VSWW5 — position and weather